sensor_id;sensor_type;location;lat;lon;timestamp;temperature;humidity
2571;DHT22;1295;51.130;6.732;2023-10-09T00:00:46;18.50;99.90
2571;DHT22;1295;51.130;6.732;2023-10-09T00:03:18;18.50;99.90
2571;DHT22;1295;51.130;6.732;2023-10-09T00:05:43;18.50;99.90
2571;DHT22;1295;51.130;6.732;2023-10-09T00:08:11;18.40;99.90
2571;DHT22;1295;51.130;6.732;2023-10-09T00:10:37;18.40;99.90
2571;DHT22;1295;51.130;6.732;2023-10-09T00:13:02;18.40;99.90
2571;DHT22;1295;51.130;6.732;2023-10-09T00:15:28;18.40;99.90
2571;DHT22;1295;51.130;6.732;2023-10-09T00:17:54;18.40;99.90
2571;DHT22;1295;51.130;6.732;2023-10-09T00:20:20;18.40;99.90
2571;DHT22;1295;51.130;6.732;2023-10-09T00:22:46;18.40;99.90
2571;DHT22;1295;51.130;6.732;2023-10-09T00:25:11;18.40;99.90
2571;DHT22;1295;51.130;6.732;2023-10-09T00:27:39;18.40;99.90
2571;DHT22;1295;51.130;6.732;2023-10-09T00:30:06;18.40;99.90
2571;DHT22;1295;51.130;6.732;2023-10-09T00:32:32;18.30;99.90
2571;DHT22;1295;51.130;6.732;2023-10-09T00:34:58;18.30;99.90
2571;DHT22;1295;51.130;6.732;2023-10-09T00:37:24;18.30;99.90
2571;DHT22;1295;51.130;6.732;2023-10-09T00:39:49;18.30;99.90
2571;DHT22;1295;51.130;6.732;2023-10-09T00:42:15;18.30;99.90
2571;DHT22;1295;51.130;6.732;2023-10-09T00:44:41;18.30;99.90
2571;DHT22;1295;51.130;6.732;2023-10-09T00:47:07;18.30;99.90
2571;DHT22;1295;51.130;6.732;2023-10-09T00:49:32;18.30;99.90
2571;DHT22;1295;51.130;6.732;2023-10-09T00:51:58;18.30;99.90
2571;DHT22;1295;51.130;6.732;2023-10-09T00:54:24;18.20;99.90
2571;DHT22;1295;51.130;6.732;2023-10-09T00:56:50;18.20;99.90
2571;DHT22;1295;51.130;6.732;2023-10-09T00:59:18;18.20;99.90
2571;DHT22;1295;51.130;6.732;2023-10-09T01:01:43;18.20;99.90
2571;DHT22;1295;51.130;6.732;2023-10-09T01:04:16;18.10;99.90
2571;DHT22;1295;51.130;6.732;2023-10-09T01:06:42;18.10;99.90
2571;DHT22;1295;51.130;6.732;2023-10-09T01:09:09;18.20;99.90
2571;DHT22;1295;51.130;6.732;2023-10-09T01:11:34;18.20;99.90
2571;DHT22;1295;51.130;6.732;2023-10-09T01:14:00;18.20;99.90
2571;DHT22;1295;51.130;6.732;2023-10-09T01:16:31;18.20;99.90
2571;DHT22;1295;51.130;6.732;2023-10-09T01:18:57;18.20;99.90
2571;DHT22;1295;51.130;6.732;2023-10-09T01:21:23;18.20;99.90
2571;DHT22;1295;51.130;6.732;2023-10-09T01:23:49;18.20;99.90
2571;DHT22;1295;51.130;6.732;2023-10-09T01:26:21;18.20;99.90
2571;DHT22;1295;51.130;6.732;2023-10-09T01:28:49;18.20;99.90
2571;DHT22;1295;51.130;6.732;2023-10-09T01:31:15;18.10;99.90
2571;DHT22;1295;51.130;6.732;2023-10-09T01:33:40;18.10;99.90
2571;DHT22;1295;51.130;6.732;2023-10-09T01:36:06;18.10;99.90
2571;DHT22;1295;51.130;6.732;2023-10-09T01:38:32;18.20;99.90
2571;DHT22;1295;51.130;6.732;2023-10-09T01:40:57;18.10;99.90
2571;DHT22;1295;51.130;6.732;2023-10-09T01:43:24;18.10;99.90
2571;DHT22;1295;51.130;6.732;2023-10-09T01:45:49;18.10;99.90
2571;DHT22;1295;51.130;6.732;2023-10-09T01:48:15;18.10;99.90
2571;DHT22;1295;51.130;6.732;2023-10-09T01:50:41;18.10;99.90
2571;DHT22;1295;51.130;6.732;2023-10-09T01:53:11;18.10;99.90
2571;DHT22;1295;51.130;6.732;2023-10-09T01:55:42;18.00;99.90
2571;DHT22;1295;51.130;6.732;2023-10-09T01:58:08;18.00;99.90
2571;DHT22;1295;51.130;6.732;2023-10-09T02:00:34;18.00;99.90
2571;DHT22;1295;51.130;6.732;2023-10-09T02:02:59;18.00;99.90
2571;DHT22;1295;51.130;6.732;2023-10-09T02:05:25;18.00;99.90
2571;DHT22;1295;51.130;6.732;2023-10-09T02:07:51;18.00;99.90
2571;DHT22;1295;51.130;6.732;2023-10-09T02:10:18;18.10;99.90
2571;DHT22;1295;51.130;6.732;2023-10-09T02:12:47;18.00;99.90
2571;DHT22;1295;51.130;6.732;2023-10-09T02:15:13;18.00;99.90
2571;DHT22;1295;51.130;6.732;2023-10-09T02:17:39;18.00;99.90
2571;DHT22;1295;51.130;6.732;2023-10-09T02:20:05;18.00;99.90
2571;DHT22;1295;51.130;6.732;2023-10-09T02:22:31;18.00;99.90
2571;DHT22;1295;51.130;6.732;2023-10-09T02:24:57;18.00;99.90
2571;DHT22;1295;51.130;6.732;2023-10-09T02:27:33;18.00;99.90
2571;DHT22;1295;51.130;6.732;2023-10-09T02:30:02;18.00;99.90
2571;DHT22;1295;51.130;6.732;2023-10-09T02:32:27;18.00;99.90
2571;DHT22;1295;51.130;6.732;2023-10-09T02:34:52;18.00;99.90
2571;DHT22;1295;51.130;6.732;2023-10-09T02:37:18;17.90;99.90
2571;DHT22;1295;51.130;6.732;2023-10-09T02:39:44;17.90;99.90
2571;DHT22;1295;51.130;6.732;2023-10-09T02:42:09;17.90;99.90
2571;DHT22;1295;51.130;6.732;2023-10-09T02:44:48;17.90;99.90
2571;DHT22;1295;51.130;6.732;2023-10-09T02:47:18;17.90;99.90
2571;DHT22;1295;51.130;6.732;2023-10-09T02:49:46;17.90;99.90
2571;DHT22;1295;51.130;6.732;2023-10-09T02:52:11;17.90;99.90
2571;DHT22;1295;51.130;6.732;2023-10-09T02:54:37;17.90;99.90
2571;DHT22;1295;51.130;6.732;2023-10-09T02:57:03;17.90;99.90
2571;DHT22;1295;51.130;6.732;2023-10-09T02:59:31;17.90;99.90
2571;DHT22;1295;51.130;6.732;2023-10-09T03:01:57;17.80;99.90
2571;DHT22;1295;51.130;6.732;2023-10-09T03:04:23;17.80;99.90
2571;DHT22;1295;51.130;6.732;2023-10-09T03:06:48;17.80;99.90
2571;DHT22;1295;51.130;6.732;2023-10-09T03:09:18;17.90;99.90
2571;DHT22;1295;51.130;6.732;2023-10-09T03:11:46;17.80;99.90
2571;DHT22;1295;51.130;6.732;2023-10-09T03:14:11;17.80;99.90
2571;DHT22;1295;51.130;6.732;2023-10-09T03:16:42;17.80;99.90
2571;DHT22;1295;51.130;6.732;2023-10-09T03:19:07;17.80;99.90
2571;DHT22;1295;51.130;6.732;2023-10-09T03:21:34;17.80;99.90
2571;DHT22;1295;51.130;6.732;2023-10-09T03:23:59;17.80;99.90
2571;DHT22;1295;51.130;6.732;2023-10-09T03:26:25;17.80;99.90
2571;DHT22;1295;51.130;6.732;2023-10-09T03:28:51;17.80;99.90
2571;DHT22;1295;51.130;6.732;2023-10-09T03:31:17;17.70;99.90
2571;DHT22;1295;51.130;6.732;2023-10-09T03:33:43;17.80;99.90
2571;DHT22;1295;51.130;6.732;2023-10-09T03:36:08;17.70;99.90
2571;DHT22;1295;51.130;6.732;2023-10-09T03:38:37;17.70;99.90
2571;DHT22;1295;51.130;6.732;2023-10-09T03:41:03;17.70;99.90
2571;DHT22;1295;51.130;6.732;2023-10-09T03:43:30;17.70;99.90
2571;DHT22;1295;51.130;6.732;2023-10-09T03:45:55;17.80;99.90
2571;DHT22;1295;51.130;6.732;2023-10-09T03:48:21;17.70;99.90
2571;DHT22;1295;51.130;6.732;2023-10-09T03:50:47;17.70;99.90
2571;DHT22;1295;51.130;6.732;2023-10-09T03:53:12;17.70;99.90
2571;DHT22;1295;51.130;6.732;2023-10-09T03:55:38;17.70;99.90
2571;DHT22;1295;51.130;6.732;2023-10-09T03:58:04;17.70;99.90
2571;DHT22;1295;51.130;6.732;2023-10-09T04:00:29;17.70;99.90
2571;DHT22;1295;51.130;6.732;2023-10-09T04:02:56;17.70;99.90
2571;DHT22;1295;51.130;6.732;2023-10-09T04:05:21;17.70;99.90
2571;DHT22;1295;51.130;6.732;2023-10-09T04:07:47;17.70;99.90
2571;DHT22;1295;51.130;6.732;2023-10-09T04:10:12;17.70;99.90
2571;DHT22;1295;51.130;6.732;2023-10-09T04:12:44;17.60;99.90
2571;DHT22;1295;51.130;6.732;2023-10-09T04:15:10;17.60;99.90
2571;DHT22;1295;51.130;6.732;2023-10-09T04:17:36;17.60;99.90
2571;DHT22;1295;51.130;6.732;2023-10-09T04:20:02;17.60;99.90
2571;DHT22;1295;51.130;6.732;2023-10-09T04:22:33;17.60;99.90
2571;DHT22;1295;51.130;6.732;2023-10-09T04:25:00;17.60;99.90
2571;DHT22;1295;51.130;6.732;2023-10-09T04:27:26;17.60;99.90
2571;DHT22;1295;51.130;6.732;2023-10-09T04:29:52;17.60;99.90
2571;DHT22;1295;51.130;6.732;2023-10-09T04:32:17;17.60;99.90
2571;DHT22;1295;51.130;6.732;2023-10-09T04:34:42;17.60;99.90
2571;DHT22;1295;51.130;6.732;2023-10-09T04:37:14;17.60;99.90
2571;DHT22;1295;51.130;6.732;2023-10-09T04:39:43;17.60;99.90
2571;DHT22;1295;51.130;6.732;2023-10-09T04:42:09;17.60;99.90
2571;DHT22;1295;51.130;6.732;2023-10-09T04:44:42;17.60;99.90
2571;DHT22;1295;51.130;6.732;2023-10-09T04:47:23;17.40;99.90
2571;DHT22;1295;51.130;6.732;2023-10-09T04:49:49;17.40;99.90
2571;DHT22;1295;51.130;6.732;2023-10-09T04:52:15;17.20;99.90
2571;DHT22;1295;51.130;6.732;2023-10-09T04:54:59;16.90;99.90
2571;DHT22;1295;51.130;6.732;2023-10-09T04:57:30;16.60;99.90
2571;DHT22;1295;51.130;6.732;2023-10-09T04:59:56;16.80;99.90
2571;DHT22;1295;51.130;6.732;2023-10-09T05:02:22;16.80;99.90
2571;DHT22;1295;51.130;6.732;2023-10-09T05:04:47;16.80;99.90
2571;DHT22;1295;51.130;6.732;2023-10-09T05:07:13;16.80;99.90
2571;DHT22;1295;51.130;6.732;2023-10-09T05:09:45;16.90;99.90
2571;DHT22;1295;51.130;6.732;2023-10-09T05:12:10;16.90;99.90
2571;DHT22;1295;51.130;6.732;2023-10-09T05:14:36;16.70;99.90
2571;DHT22;1295;51.130;6.732;2023-10-09T05:17:04;16.60;99.90
2571;DHT22;1295;51.130;6.732;2023-10-09T05:19:30;16.70;99.90
2571;DHT22;1295;51.130;6.732;2023-10-09T05:21:59;16.70;99.90
2571;DHT22;1295;51.130;6.732;2023-10-09T05:24:24;16.60;99.90
2571;DHT22;1295;51.130;6.732;2023-10-09T05:26:50;16.50;99.90
2571;DHT22;1295;51.130;6.732;2023-10-09T05:29:17;16.70;99.90
2571;DHT22;1295;51.130;6.732;2023-10-09T05:31:46;16.70;99.90
2571;DHT22;1295;51.130;6.732;2023-10-09T05:34:11;16.90;99.90
2571;DHT22;1295;51.130;6.732;2023-10-09T05:36:36;16.90;99.90
2571;DHT22;1295;51.130;6.732;2023-10-09T05:39:02;16.90;99.90
2571;DHT22;1295;51.130;6.732;2023-10-09T05:41:34;16.90;99.90
2571;DHT22;1295;51.130;6.732;2023-10-09T05:44:16;17.00;99.90
2571;DHT22;1295;51.130;6.732;2023-10-09T05:46:48;17.00;99.90
2571;DHT22;1295;51.130;6.732;2023-10-09T05:49:13;17.30;99.90
2571;DHT22;1295;51.130;6.732;2023-10-09T05:51:39;17.40;99.90
2571;DHT22;1295;51.130;6.732;2023-10-09T05:54:07;17.30;99.90
2571;DHT22;1295;51.130;6.732;2023-10-09T05:56:42;17.20;99.90
2571;DHT22;1295;51.130;6.732;2023-10-09T05:59:19;17.40;99.90
2571;DHT22;1295;51.130;6.732;2023-10-09T06:01:51;17.30;99.90
2571;DHT22;1295;51.130;6.732;2023-10-09T06:04:29;17.30;99.90
2571;DHT22;1295;51.130;6.732;2023-10-09T06:06:58;17.20;99.90
2571;DHT22;1295;51.130;6.732;2023-10-09T06:09:23;17.20;99.90
2571;DHT22;1295;51.130;6.732;2023-10-09T06:11:49;17.30;99.90
2571;DHT22;1295;51.130;6.732;2023-10-09T06:14:16;17.00;99.90
2571;DHT22;1295;51.130;6.732;2023-10-09T06:16:42;17.10;99.90
2571;DHT22;1295;51.130;6.732;2023-10-09T06:19:09;17.20;99.90
2571;DHT22;1295;51.130;6.732;2023-10-09T06:21:35;17.20;99.90
2571;DHT22;1295;51.130;6.732;2023-10-09T06:24:06;17.20;99.90
2571;DHT22;1295;51.130;6.732;2023-10-09T06:26:33;17.20;99.90
2571;DHT22;1295;51.130;6.732;2023-10-09T06:28:59;17.30;99.90
2571;DHT22;1295;51.130;6.732;2023-10-09T06:31:31;17.20;99.90
2571;DHT22;1295;51.130;6.732;2023-10-09T06:33:57;17.20;99.90
2571;DHT22;1295;51.130;6.732;2023-10-09T06:36:24;17.30;99.90
2571;DHT22;1295;51.130;6.732;2023-10-09T06:38:50;17.30;99.90
2571;DHT22;1295;51.130;6.732;2023-10-09T06:41:18;17.40;99.90
2571;DHT22;1295;51.130;6.732;2023-10-09T06:43:44;17.40;99.90
2571;DHT22;1295;51.130;6.732;2023-10-09T06:46:14;17.40;99.90
2571;DHT22;1295;51.130;6.732;2023-10-09T06:48:41;17.30;99.90
2571;DHT22;1295;51.130;6.732;2023-10-09T06:51:07;17.10;99.90
2571;DHT22;1295;51.130;6.732;2023-10-09T06:53:39;17.10;99.90
2571;DHT22;1295;51.130;6.732;2023-10-09T06:56:10;16.80;99.90
2571;DHT22;1295;51.130;6.732;2023-10-09T06:58:36;17.00;99.90
2571;DHT22;1295;51.130;6.732;2023-10-09T07:01:08;16.90;99.90
2571;DHT22;1295;51.130;6.732;2023-10-09T07:03:40;17.30;99.90
2571;DHT22;1295;51.130;6.732;2023-10-09T07:06:22;17.30;99.90
2571;DHT22;1295;51.130;6.732;2023-10-09T07:08:51;17.80;99.90
2571;DHT22;1295;51.130;6.732;2023-10-09T07:11:22;17.90;99.90
2571;DHT22;1295;51.130;6.732;2023-10-09T07:13:48;18.00;99.90
2571;DHT22;1295;51.130;6.732;2023-10-09T07:16:13;17.80;99.90
2571;DHT22;1295;51.130;6.732;2023-10-09T07:18:56;18.00;99.90
2571;DHT22;1295;51.130;6.732;2023-10-09T07:21:22;18.00;99.90
2571;DHT22;1295;51.130;6.732;2023-10-09T07:23:47;17.70;99.90
2571;DHT22;1295;51.130;6.732;2023-10-09T07:26:14;17.60;99.90
2571;DHT22;1295;51.130;6.732;2023-10-09T07:28:44;17.30;99.90
2571;DHT22;1295;51.130;6.732;2023-10-09T07:31:16;17.40;99.90
2571;DHT22;1295;51.130;6.732;2023-10-09T07:33:42;17.30;99.90
2571;DHT22;1295;51.130;6.732;2023-10-09T07:36:15;17.40;99.90
2571;DHT22;1295;51.130;6.732;2023-10-09T07:38:41;17.30;99.90
2571;DHT22;1295;51.130;6.732;2023-10-09T07:41:07;17.30;99.90
2571;DHT22;1295;51.130;6.732;2023-10-09T07:43:47;17.50;99.90
2571;DHT22;1295;51.130;6.732;2023-10-09T07:46:15;17.40;99.90
2571;DHT22;1295;51.130;6.732;2023-10-09T07:48:46;17.70;99.90
2571;DHT22;1295;51.130;6.732;2023-10-09T07:51:14;17.60;99.90
2571;DHT22;1295;51.130;6.732;2023-10-09T07:53:40;17.40;99.90
2571;DHT22;1295;51.130;6.732;2023-10-09T07:56:06;17.30;99.90
2571;DHT22;1295;51.130;6.732;2023-10-09T07:58:32;17.30;99.90
2571;DHT22;1295;51.130;6.732;2023-10-09T08:00:58;17.20;99.90
2571;DHT22;1295;51.130;6.732;2023-10-09T08:03:30;17.40;99.90
2571;DHT22;1295;51.130;6.732;2023-10-09T08:05:55;17.50;99.90
2571;DHT22;1295;51.130;6.732;2023-10-09T08:08:21;17.40;99.90
2571;DHT22;1295;51.130;6.732;2023-10-09T08:10:53;17.30;99.90
2571;DHT22;1295;51.130;6.732;2023-10-09T08:13:25;17.30;99.90
2571;DHT22;1295;51.130;6.732;2023-10-09T08:15:56;17.20;99.90
2571;DHT22;1295;51.130;6.732;2023-10-09T08:18:22;17.30;99.90
2571;DHT22;1295;51.130;6.732;2023-10-09T08:20:54;17.40;99.90
2571;DHT22;1295;51.130;6.732;2023-10-09T08:23:37;17.40;99.90
2571;DHT22;1295;51.130;6.732;2023-10-09T08:26:09;17.30;99.90
2571;DHT22;1295;51.130;6.732;2023-10-09T08:28:35;17.50;99.90
2571;DHT22;1295;51.130;6.732;2023-10-09T08:31:02;17.60;99.90
2571;DHT22;1295;51.130;6.732;2023-10-09T08:33:28;17.40;99.90
2571;DHT22;1295;51.130;6.732;2023-10-09T08:35:54;17.50;99.90
2571;DHT22;1295;51.130;6.732;2023-10-09T08:38:21;17.90;99.90
2571;DHT22;1295;51.130;6.732;2023-10-09T08:40:50;17.70;99.90
2571;DHT22;1295;51.130;6.732;2023-10-09T08:43:15;17.70;99.90
2571;DHT22;1295;51.130;6.732;2023-10-09T08:45:41;17.50;99.90
2571;DHT22;1295;51.130;6.732;2023-10-09T08:48:07;17.60;99.90
2571;DHT22;1295;51.130;6.732;2023-10-09T08:50:33;17.60;99.90
2571;DHT22;1295;51.130;6.732;2023-10-09T08:52:58;17.70;99.90
2571;DHT22;1295;51.130;6.732;2023-10-09T08:55:24;17.70;99.90
2571;DHT22;1295;51.130;6.732;2023-10-09T08:57:49;17.70;99.90
2571;DHT22;1295;51.130;6.732;2023-10-09T09:00:16;17.70;99.90
2571;DHT22;1295;51.130;6.732;2023-10-09T09:02:42;17.60;99.90
2571;DHT22;1295;51.130;6.732;2023-10-09T09:05:16;17.50;99.90
2571;DHT22;1295;51.130;6.732;2023-10-09T09:07:42;17.60;99.90
2571;DHT22;1295;51.130;6.732;2023-10-09T09:10:13;17.70;99.90
2571;DHT22;1295;51.130;6.732;2023-10-09T09:12:49;17.60;99.90
2571;DHT22;1295;51.130;6.732;2023-10-09T09:15:16;17.60;99.90
2571;DHT22;1295;51.130;6.732;2023-10-09T09:17:43;17.80;99.90
2571;DHT22;1295;51.130;6.732;2023-10-09T09:20:19;17.80;99.90
2571;DHT22;1295;51.130;6.732;2023-10-09T09:22:53;17.80;99.90
2571;DHT22;1295;51.130;6.732;2023-10-09T09:25:18;17.80;99.90
2571;DHT22;1295;51.130;6.732;2023-10-09T09:27:45;17.90;99.90
2571;DHT22;1295;51.130;6.732;2023-10-09T09:30:23;18.00;99.90
2571;DHT22;1295;51.130;6.732;2023-10-09T09:32:48;18.20;99.90
2571;DHT22;1295;51.130;6.732;2023-10-09T09:35:13;18.00;99.90
2571;DHT22;1295;51.130;6.732;2023-10-09T09:37:39;18.20;99.90
2571;DHT22;1295;51.130;6.732;2023-10-09T09:40:21;18.10;99.90
2571;DHT22;1295;51.130;6.732;2023-10-09T09:42:57;18.50;99.90
2571;DHT22;1295;51.130;6.732;2023-10-09T09:45:23;18.70;99.90
2571;DHT22;1295;51.130;6.732;2023-10-09T09:47:48;18.50;99.90
2571;DHT22;1295;51.130;6.732;2023-10-09T09:50:14;18.30;99.90
2571;DHT22;1295;51.130;6.732;2023-10-09T09:52:39;18.50;99.90
2571;DHT22;1295;51.130;6.732;2023-10-09T09:55:08;18.50;99.90
2571;DHT22;1295;51.130;6.732;2023-10-09T09:57:33;18.60;99.90
2571;DHT22;1295;51.130;6.732;2023-10-09T10:00:00;18.80;99.90
2571;DHT22;1295;51.130;6.732;2023-10-09T10:02:29;18.80;99.90
2571;DHT22;1295;51.130;6.732;2023-10-09T10:04:54;19.10;99.90
2571;DHT22;1295;51.130;6.732;2023-10-09T10:07:19;18.80;99.90
2571;DHT22;1295;51.130;6.732;2023-10-09T10:09:44;18.80;99.90
2571;DHT22;1295;51.130;6.732;2023-10-09T10:12:10;18.90;99.90
2571;DHT22;1295;51.130;6.732;2023-10-09T10:17:13;18.90;99.90
2571;DHT22;1295;51.130;6.732;2023-10-09T10:22:23;18.90;99.90
2571;DHT22;1295;51.130;6.732;2023-10-09T10:24:49;19.10;99.90
2571;DHT22;1295;51.130;6.732;2023-10-09T10:27:17;19.10;99.90
2571;DHT22;1295;51.130;6.732;2023-10-09T10:29:44;19.00;99.90
2571;DHT22;1295;51.130;6.732;2023-10-09T10:32:09;18.80;99.90
2571;DHT22;1295;51.130;6.732;2023-10-09T10:34:53;18.60;99.90
2571;DHT22;1295;51.130;6.732;2023-10-09T10:37:37;18.80;99.90
2571;DHT22;1295;51.130;6.732;2023-10-09T10:40:08;18.90;99.90
2571;DHT22;1295;51.130;6.732;2023-10-09T10:42:34;19.00;99.90
2571;DHT22;1295;51.130;6.732;2023-10-09T10:45:01;19.10;99.90
2571;DHT22;1295;51.130;6.732;2023-10-09T10:47:27;19.10;99.90
2571;DHT22;1295;51.130;6.732;2023-10-09T10:49:52;19.00;99.90
2571;DHT22;1295;51.130;6.732;2023-10-09T10:52:21;18.80;99.90
2571;DHT22;1295;51.130;6.732;2023-10-09T10:54:46;19.00;99.90
2571;DHT22;1295;51.130;6.732;2023-10-09T10:57:13;18.80;99.90
2571;DHT22;1295;51.130;6.732;2023-10-09T10:59:39;18.70;99.90
2571;DHT22;1295;51.130;6.732;2023-10-09T11:02:10;18.80;99.90
2571;DHT22;1295;51.130;6.732;2023-10-09T11:04:45;18.90;99.90
2571;DHT22;1295;51.130;6.732;2023-10-09T11:07:08;18.90;99.90
2571;DHT22;1295;51.130;6.732;2023-10-09T11:09:51;18.90;99.90
2571;DHT22;1295;51.130;6.732;2023-10-09T11:12:26;18.70;99.90
2571;DHT22;1295;51.130;6.732;2023-10-09T11:14:52;18.70;99.90
2571;DHT22;1295;51.130;6.732;2023-10-09T11:17:23;18.70;99.90
2571;DHT22;1295;51.130;6.732;2023-10-09T11:19:50;19.00;99.90
2571;DHT22;1295;51.130;6.732;2023-10-09T11:22:15;19.00;99.90
2571;DHT22;1295;51.130;6.732;2023-10-09T11:24:42;19.10;99.90
2571;DHT22;1295;51.130;6.732;2023-10-09T11:27:08;19.20;99.90
2571;DHT22;1295;51.130;6.732;2023-10-09T11:29:34;19.20;99.90
2571;DHT22;1295;51.130;6.732;2023-10-09T11:32:06;19.00;99.90
2571;DHT22;1295;51.130;6.732;2023-10-09T11:34:32;19.20;99.90
2571;DHT22;1295;51.130;6.732;2023-10-09T11:36:58;19.20;99.90
2571;DHT22;1295;51.130;6.732;2023-10-09T11:39:25;19.20;99.90
2571;DHT22;1295;51.130;6.732;2023-10-09T11:41:50;19.10;99.90
2571;DHT22;1295;51.130;6.732;2023-10-09T11:44:16;19.00;99.90
2571;DHT22;1295;51.130;6.732;2023-10-09T11:49:21;19.30;99.90
2571;DHT22;1295;51.130;6.732;2023-10-09T11:52:05;19.40;99.90
2571;DHT22;1295;51.130;6.732;2023-10-09T11:54:48;19.90;99.90
2571;DHT22;1295;51.130;6.732;2023-10-09T11:57:14;19.60;99.90
2571;DHT22;1295;51.130;6.732;2023-10-09T11:59:40;19.40;99.90
2571;DHT22;1295;51.130;6.732;2023-10-09T12:02:07;19.40;99.90
2571;DHT22;1295;51.130;6.732;2023-10-09T12:04:32;19.40;99.90
2571;DHT22;1295;51.130;6.732;2023-10-09T12:06:58;19.70;99.90
2571;DHT22;1295;51.130;6.732;2023-10-09T12:09:24;19.70;99.90
2571;DHT22;1295;51.130;6.732;2023-10-09T12:11:50;19.70;99.90
2571;DHT22;1295;51.130;6.732;2023-10-09T12:14:16;19.80;99.90
2571;DHT22;1295;51.130;6.732;2023-10-09T12:16:42;19.70;99.90
2571;DHT22;1295;51.130;6.732;2023-10-09T12:19:13;19.70;99.90
2571;DHT22;1295;51.130;6.732;2023-10-09T12:21:45;20.10;99.90
2571;DHT22;1295;51.130;6.732;2023-10-09T12:24:11;19.70;99.90
2571;DHT22;1295;51.130;6.732;2023-10-09T12:26:37;19.90;99.90
2571;DHT22;1295;51.130;6.732;2023-10-09T12:29:02;19.90;99.90
2571;DHT22;1295;51.130;6.732;2023-10-09T12:31:28;20.00;99.90
2571;DHT22;1295;51.130;6.732;2023-10-09T12:33:54;20.10;99.90
2571;DHT22;1295;51.130;6.732;2023-10-09T12:36:19;19.90;99.90
2571;DHT22;1295;51.130;6.732;2023-10-09T12:38:46;19.70;99.90
2571;DHT22;1295;51.130;6.732;2023-10-09T12:41:11;19.40;99.90
2571;DHT22;1295;51.130;6.732;2023-10-09T12:43:43;19.70;99.90
2571;DHT22;1295;51.130;6.732;2023-10-09T12:46:09;19.70;99.90
2571;DHT22;1295;51.130;6.732;2023-10-09T12:48:49;19.50;99.90
2571;DHT22;1295;51.130;6.732;2023-10-09T12:51:15;19.60;99.90
2571;DHT22;1295;51.130;6.732;2023-10-09T12:53:43;19.40;99.90
2571;DHT22;1295;51.130;6.732;2023-10-09T12:56:08;19.20;99.90
2571;DHT22;1295;51.130;6.732;2023-10-09T12:58:34;19.20;99.90
2571;DHT22;1295;51.130;6.732;2023-10-09T13:00:59;19.20;99.90
2571;DHT22;1295;51.130;6.732;2023-10-09T13:03:25;19.20;99.90
2571;DHT22;1295;51.130;6.732;2023-10-09T13:05:52;19.50;99.90
2571;DHT22;1295;51.130;6.732;2023-10-09T13:08:19;19.50;99.90
2571;DHT22;1295;51.130;6.732;2023-10-09T13:10:44;19.50;99.90
2571;DHT22;1295;51.130;6.732;2023-10-09T13:13:10;19.70;99.90
2571;DHT22;1295;51.130;6.732;2023-10-09T13:15:36;19.70;99.90
2571;DHT22;1295;51.130;6.732;2023-10-09T13:18:01;19.40;99.90
2571;DHT22;1295;51.130;6.732;2023-10-09T13:20:27;19.40;99.90
2571;DHT22;1295;51.130;6.732;2023-10-09T13:22:53;19.40;99.90
2571;DHT22;1295;51.130;6.732;2023-10-09T13:25:19;19.60;99.90
2571;DHT22;1295;51.130;6.732;2023-10-09T13:27:45;19.60;99.90
2571;DHT22;1295;51.130;6.732;2023-10-09T13:30:12;19.50;99.90
2571;DHT22;1295;51.130;6.732;2023-10-09T13:32:38;19.80;99.90
2571;DHT22;1295;51.130;6.732;2023-10-09T13:35:04;19.70;99.90
2571;DHT22;1295;51.130;6.732;2023-10-09T13:37:31;20.00;99.90
2571;DHT22;1295;51.130;6.732;2023-10-09T13:39:57;20.00;99.90
2571;DHT22;1295;51.130;6.732;2023-10-09T13:42:22;20.00;99.90
2571;DHT22;1295;51.130;6.732;2023-10-09T13:44:49;19.90;99.90
2571;DHT22;1295;51.130;6.732;2023-10-09T13:47:15;19.60;99.90
2571;DHT22;1295;51.130;6.732;2023-10-09T13:49:50;19.90;99.90
2571;DHT22;1295;51.130;6.732;2023-10-09T13:52:17;20.00;99.90
2571;DHT22;1295;51.130;6.732;2023-10-09T13:54:43;20.00;99.90
2571;DHT22;1295;51.130;6.732;2023-10-09T13:57:09;19.70;99.90
2571;DHT22;1295;51.130;6.732;2023-10-09T13:59:35;19.70;99.90
2571;DHT22;1295;51.130;6.732;2023-10-09T14:02:01;19.90;99.90
2571;DHT22;1295;51.130;6.732;2023-10-09T14:04:26;19.90;99.90
2571;DHT22;1295;51.130;6.732;2023-10-09T14:06:52;20.10;99.90
2571;DHT22;1295;51.130;6.732;2023-10-09T14:09:23;19.90;99.90
2571;DHT22;1295;51.130;6.732;2023-10-09T14:11:55;20.10;99.90
2571;DHT22;1295;51.130;6.732;2023-10-09T14:14:20;20.10;99.90
2571;DHT22;1295;51.130;6.732;2023-10-09T14:16:45;20.00;99.90
2571;DHT22;1295;51.130;6.732;2023-10-09T14:19:11;20.20;99.90
2571;DHT22;1295;51.130;6.732;2023-10-09T14:21:36;19.90;99.90
2571;DHT22;1295;51.130;6.732;2023-10-09T14:24:02;19.80;99.90
2571;DHT22;1295;51.130;6.732;2023-10-09T14:26:29;20.20;99.90
2571;DHT22;1295;51.130;6.732;2023-10-09T14:28:54;20.40;99.90
2571;DHT22;1295;51.130;6.732;2023-10-09T14:31:19;20.20;99.90
2571;DHT22;1295;51.130;6.732;2023-10-09T14:33:48;20.30;99.90
2571;DHT22;1295;51.130;6.732;2023-10-09T14:36:14;20.10;99.90
2571;DHT22;1295;51.130;6.732;2023-10-09T14:38:40;20.20;99.90
2571;DHT22;1295;51.130;6.732;2023-10-09T14:41:06;20.10;99.90
2571;DHT22;1295;51.130;6.732;2023-10-09T14:43:32;20.00;99.90
2571;DHT22;1295;51.130;6.732;2023-10-09T14:45:57;20.00;99.90
2571;DHT22;1295;51.130;6.732;2023-10-09T14:48:23;19.90;99.90
2571;DHT22;1295;51.130;6.732;2023-10-09T14:50:52;20.00;99.90
2571;DHT22;1295;51.130;6.732;2023-10-09T14:53:20;20.00;99.90
2571;DHT22;1295;51.130;6.732;2023-10-09T14:55:45;19.90;99.90
2571;DHT22;1295;51.130;6.732;2023-10-09T14:58:11;19.80;99.90
2571;DHT22;1295;51.130;6.732;2023-10-09T15:00:38;19.80;99.90
2571;DHT22;1295;51.130;6.732;2023-10-09T15:03:04;19.80;99.90
2571;DHT22;1295;51.130;6.732;2023-10-09T15:05:29;19.90;99.90
2571;DHT22;1295;51.130;6.732;2023-10-09T15:07:55;19.80;99.90
2571;DHT22;1295;51.130;6.732;2023-10-09T15:10:20;19.90;99.90
2571;DHT22;1295;51.130;6.732;2023-10-09T15:12:46;19.90;99.90
2571;DHT22;1295;51.130;6.732;2023-10-09T15:15:12;20.00;99.90
2571;DHT22;1295;51.130;6.732;2023-10-09T15:17:40;19.90;99.90
2571;DHT22;1295;51.130;6.732;2023-10-09T15:20:06;20.00;99.90
2571;DHT22;1295;51.130;6.732;2023-10-09T15:22:31;20.00;99.90
2571;DHT22;1295;51.130;6.732;2023-10-09T15:24:58;19.90;99.90
2571;DHT22;1295;51.130;6.732;2023-10-09T15:27:23;19.90;99.90
2571;DHT22;1295;51.130;6.732;2023-10-09T15:29:49;20.00;99.90
2571;DHT22;1295;51.130;6.732;2023-10-09T15:32:15;20.00;99.90
2571;DHT22;1295;51.130;6.732;2023-10-09T15:34:40;20.00;99.90
2571;DHT22;1295;51.130;6.732;2023-10-09T15:37:06;20.00;99.90
2571;DHT22;1295;51.130;6.732;2023-10-09T15:39:34;20.00;99.90
2571;DHT22;1295;51.130;6.732;2023-10-09T15:41:59;20.00;99.90
2571;DHT22;1295;51.130;6.732;2023-10-09T15:44:25;20.00;99.90
2571;DHT22;1295;51.130;6.732;2023-10-09T15:46:51;20.00;99.90
2571;DHT22;1295;51.130;6.732;2023-10-09T15:49:17;20.00;99.90
2571;DHT22;1295;51.130;6.732;2023-10-09T15:51:42;19.90;99.90
2571;DHT22;1295;51.130;6.732;2023-10-09T15:54:13;19.90;99.90
2571;DHT22;1295;51.130;6.732;2023-10-09T15:56:44;19.80;99.90
2571;DHT22;1295;51.130;6.732;2023-10-09T15:59:09;19.80;99.90
2571;DHT22;1295;51.130;6.732;2023-10-09T16:01:35;19.80;99.90
2571;DHT22;1295;51.130;6.732;2023-10-09T16:04:01;19.70;99.90
2571;DHT22;1295;51.130;6.732;2023-10-09T16:06:27;19.70;99.90
2571;DHT22;1295;51.130;6.732;2023-10-09T16:08:53;19.80;99.90
2571;DHT22;1295;51.130;6.732;2023-10-09T16:11:19;19.80;99.90